Time;durP1;ratioP1;P1;durP2;ratioP2;P2;SDS_P1;SDS_P2;PMS_P1;PMS_P2;Temp;Humidity;BMP_temperature;BMP_pressure;BME280_temperature;BME280_humidity;BME280_pressure;Samples;Min_cycle;Max_cycle;Signal;HPM_P1;HPM_P2
2022/09/27 00:01:05;;;;;;;1.27;0.77;;;;;;;;;;5073492;28;20059;-71
2022/09/27 00:03:32;;;;;;;1.57;0.97;;;;;;;;;;5073701;28;20024;-67
2022/09/27 00:06:08;;;;;;;0.70;0.53;;;;;;;;;;5072582;28;20387;-67
2022/09/27 00:08:35;;;;;;;6.47;1.73;;;;;;;;;;5051203;28;20021;-67
2022/09/27 00:11:03;;;;;;;1.83;0.87;;;;;;;;;;5047859;28;20036;-67
2022/09/27 00:13:29;;;;;;;20.77;2.47;;;;;;;;;;5048026;28;20503;-67
2022/09/27 00:15:57;;;;;;;5.07;2.40;;;;;;;;;;5048280;28;20506;-67
2022/09/27 00:18:24;;;;;;;3.23;1.80;;;;;;;;;;5069470;28;20024;-67
2022/09/27 00:20:51;;;;;;;2.23;1.13;;;;;;;;;;5073225;28;20028;-67
2022/09/27 00:23:17;;;;;;;1.93;1.13;;;;;;;;;;5072893;28;20032;-67
2022/09/27 00:25:54;;;;;;;3.97;1.93;;;;;;;;;;5073011;28;20105;-67
2022/09/27 00:28:20;;;;;;;2.30;1.33;;;;;;;;;;5072444;28;20399;-67
2022/09/27 00:30:47;;;;;;;1.13;0.80;;;;;;;;;;5071038;28;20087;-68
2022/09/27 00:33:14;;;;;;;1.30;0.90;;;;;;;;;;5067583;28;20051;-67
2022/09/27 00:35:44;;;;;;;1.77;0.60;;;;;;;;;;5067500;28;20102;-68
2022/09/27 00:38:10;;;;;;;2.53;1.33;;;;;;;;;;5067206;28;20039;-67
2022/09/27 00:40:37;;;;;;;2.00;0.90;;;;;;;;;;5068712;28;20028;-68
2022/09/27 00:43:11;;;;;;;6.33;1.00;;;;;;;;;;5071489;28;20531;-67
2022/09/27 00:45:38;;;;;;;2.22;1.42;;;;;;;;;;5072037;28;20044;-67
2022/09/27 00:48:05;;;;;;;2.00;1.00;;;;;;;;;;5072442;28;20024;-67
2022/09/27 00:50:40;;;;;;;1.87;1.17;;;;;;;;;;5072700;28;20035;-67
2022/09/27 00:53:10;;;;;;;1.53;1.00;;;;;;;;;;5070294;28;20035;-67
2022/09/27 00:55:39;;;;;;;2.30;1.47;;;;;;;;;;5066896;28;20111;-67
2022/09/27 00:58:07;;;;;;;1.33;1.00;;;;;;;;;;5067288;28;20038;-67
2022/09/27 01:00:34;;;;;;;2.77;1.67;;;;;;;;;;5066150;28;20040;-67
2022/09/27 01:03:02;;;;;;;1.80;1.37;;;;;;;;;;5067233;28;20051;-67
2022/09/27 01:05:29;;;;;;;2.57;1.47;;;;;;;;;;5071534;28;20055;-67
2022/09/27 01:07:58;;;;;;;3.00;1.20;;;;;;;;;;5071990;28;20383;-67
2022/09/27 01:10:26;;;;;;;1.93;1.27;;;;;;;;;;5072431;28;20497;-67
2022/09/27 01:12:57;;;;;;;2.33;1.10;;;;;;;;;;5071902;28;20056;-67
2022/09/27 01:15:24;;;;;;;0.77;0.70;;;;;;;;;;5070301;28;20112;-67
2022/09/27 01:17:51;;;;;;;2.27;1.33;;;;;;;;;;5066466;28;20052;-67
2022/09/27 01:20:35;;;;;;;1.80;1.00;;;;;;;;;;5066919;28;20077;-67
2022/09/27 01:23:02;;;;;;;1.90;0.87;;;;;;;;;;5066604;28;20023;-68
2022/09/27 01:25:47;;;;;;;0.83;0.70;;;;;;;;;;5067066;28;20029;-67
2022/09/27 01:28:19;;;;;;;1.77;0.88;;;;;;;;;;5072343;28;20028;-67
2022/09/27 01:30:58;;;;;;;6.63;1.03;;;;;;;;;;5072388;28;20383;-67
2022/09/27 01:33:37;;;;;;;3.23;0.70;;;;;;;;;;5071354;28;20024;-67
2022/09/27 01:36:04;;;;;;;6.60;1.20;;;;;;;;;;5072137;28;20063;-67
2022/09/27 01:38:39;;;;;;;0.97;0.50;;;;;;;;;;5069000;28;20029;-67
2022/09/27 01:41:09;;;;;;;1.10;0.57;;;;;;;;;;5066830;28;20025;-67
2022/09/27 01:43:36;;;;;;;3.90;1.30;;;;;;;;;;5066511;28;20115;-67
2022/09/27 01:46:06;;;;;;;1.63;0.80;;;;;;;;;;5066311;28;20028;-67
2022/09/27 01:48:35;;;;;;;2.17;1.40;;;;;;;;;;5069483;28;20024;-67
2022/09/27 01:51:08;;;;;;;2.67;1.20;;;;;;;;;;5072006;28;20017;-67
2022/09/27 01:53:42;;;;;;;3.00;1.10;;;;;;;;;;5071235;28;20025;-67
2022/09/27 01:56:09;;;;;;;;;;;;;;;;;;5072164;28;20021;-67
2022/09/27 01:58:49;;;;;;;2.70;1.07;;;;;;;;;;5071725;28;20360;-68
2022/09/27 02:01:17;;;;;;;0.90;0.67;;;;;;;;;;5048263;28;20037;-67
2022/09/27 02:03:47;;;;;;;0.50;0.40;;;;;;;;;;5047444;28;20021;-67
2022/09/27 02:06:26;;;;;;;2.53;0.77;;;;;;;;;;5065054;28;20036;-67
2022/09/27 02:09:01;;;;;;;1.30;0.90;;;;;;;;;;5066573;28;20051;-67
2022/09/27 02:11:28;;;;;;;1.07;0.60;;;;;;;;;;5070362;28;20056;-67
2022/09/27 02:14:08;;;;;;;0.33;0.30;;;;;;;;;;5071730;28;20103;-67
2022/09/27 02:16:35;;;;;;;0.70;0.50;;;;;;;;;;5071493;28;20036;-67
2022/09/27 02:19:02;;;;;;;0.93;0.63;;;;;;;;;;5071850;28;20021;-67
2022/09/27 02:21:37;;;;;;;1.23;0.60;;;;;;;;;;5071655;28;20025;-67
2022/09/27 02:24:05;;;;;;;1.07;0.87;;;;;;;;;;5066804;28;20024;-67
2022/09/27 02:26:41;;;;;;;2.10;1.00;;;;;;;;;;5065845;28;20024;-67
2022/09/27 02:29:13;;;;;;;1.23;0.70;;;;;;;;;;5066388;28;20495;-67
2022/09/27 02:31:40;;;;;;;4.20;1.57;;;;;;;;;;5065682;28;20371;-67
2022/09/27 02:34:12;;;;;;;1.37;0.50;;;;;;;;;;5070367;28;20037;-68
2022/09/27 02:36:40;;;;;;;1.87;0.77;;;;;;;;;;5073687;28;20025;-68
2022/09/27 02:39:07;;;;;;;1.50;0.93;;;;;;;;;;5075031;28;20115;-67
2022/09/27 02:41:33;;;;;;;0.50;0.50;;;;;;;;;;5074910;28;20035;-67
2022/09/27 02:44:03;;;;;;;1.10;0.80;;;;;;;;;;5074701;28;20029;-68
2022/09/27 02:46:36;;;;;;;1.63;1.10;;;;;;;;;;5069964;28;20354;-67
2022/09/27 02:49:09;;;;;;;0.90;0.73;;;;;;;;;;5068935;28;20032;-68
2022/09/27 02:51:54;;;;;;;1.30;0.90;;;;;;;;;;5069741;28;20028;-68
2022/09/27 02:54:40;;;;;;;1.10;0.63;;;;;;;;;;5069590;28;20028;-68
2022/09/27 02:57:29;;;;;;;1.30;0.90;;;;;;;;;;5074759;28;20033;-68
2022/09/27 02:59:56;;;;;;;1.30;0.97;;;;;;;;;;5038303;28;20044;-67
2022/09/27 03:02:52;;;;;;;0.20;0.20;;;;;;;;;;5054686;28;20021;-67
2022/09/27 03:05:21;;;;;;;0.70;0.60;;;;;;;;;;5041654;28;20041;-68
2022/09/27 03:07:49;;;;;;;0.67;0.40;;;;;;;;;;5052018;28;20023;-68
2022/09/27 03:10:17;;;;;;;8.70;1.23;;;;;;;;;;5063396;28;20042;-67
2022/09/27 03:12:44;;;;;;;1.87;0.90;;;;;;;;;;5069179;28;20020;-67
2022/09/27 03:15:10;;;;;;;2.00;1.00;;;;;;;;;;5069051;28;20025;-67
2022/09/27 03:17:37;;;;;;;12.13;0.97;;;;;;;;;;5070867;28;20020;-67
2022/09/27 03:20:04;;;;;;;0.50;0.43;;;;;;;;;;5073449;28;20109;-67
2022/09/27 03:22:31;;;;;;;0.20;0.20;;;;;;;;;;5073956;28;20126;-67
2022/09/27 03:24:57;;;;;;;0.40;0.30;;;;;;;;;;5074488;28;20025;-67
2022/09/27 03:27:24;;;;;;;0.83;0.43;;;;;;;;;;5074045;28;20032;-67
2022/09/27 03:29:51;;;;;;;0.30;0.20;;;;;;;;;;5072068;28;20029;-67
2022/09/27 03:32:18;;;;;;;0.70;0.40;;;;;;;;;;5068948;28;20029;-67
2022/09/27 03:34:44;;;;;;;14.30;0.67;;;;;;;;;;5068582;28;20025;-67
2022/09/27 03:37:11;;;;;;;0.90;0.30;;;;;;;;;;5068792;28;20028;-67
2022/09/27 03:39:39;;;;;;;0.43;0.30;;;;;;;;;;5069248;28;20032;-67
2022/09/27 03:42:06;;;;;;;0.70;0.40;;;;;;;;;;5074221;28;20031;-66
2022/09/27 03:44:32;;;;;;;0.20;0.10;;;;;;;;;;5074222;28;20407;-67
2022/09/27 03:46:59;;;;;;;0.10;0.10;;;;;;;;;;5073550;28;20033;-67
2022/09/27 03:49:26;;;;;;;0.57;0.30;;;;;;;;;;5073021;28;20560;-67
2022/09/27 03:51:53;;;;;;;0.40;0.37;;;;;;;;;;5072364;28;20388;-67
2022/09/27 03:54:19;;;;;;;1.50;0.40;;;;;;;;;;5068518;28;20097;-69
2022/09/27 03:56:46;;;;;;;0.30;0.30;;;;;;;;;;5068324;28;20048;-67
2022/09/27 03:59:13;;;;;;;1.33;0.40;;;;;;;;;;5068116;28;20453;-66
2022/09/27 04:01:40;;;;;;;0.83;0.50;;;;;;;;;;5068230;28;20116;-67
2022/09/27 04:04:07;;;;;;;2.37;0.53;;;;;;;;;;5073506;28;20074;-67
2022/09/27 04:06:33;;;;;;;0.20;0.20;;;;;;;;;;5073465;28;20024;-67
2022/09/27 04:09:00;;;;;;;0.30;0.20;;;;;;;;;;5072997;28;20071;-67
2022/09/27 04:11:27;;;;;;;0.30;0.20;;;;;;;;;;5073538;28;20021;-66
2022/09/27 04:13:55;;;;;;;0.33;0.30;;;;;;;;;;5073152;28;20047;-66
2022/09/27 04:16:23;;;;;;;0.87;0.27;;;;;;;;;;5067954;28;20044;-66
2022/09/27 04:18:50;;;;;;;0.10;0.10;;;;;;;;;;5067957;28;20082;-66
2022/09/27 04:21:16;;;;;;;0.20;0.20;;;;;;;;;;5067912;28;20100;-66
2022/09/27 04:23:43;;;;;;;0.23;0.17;;;;;;;;;;5067510;28;20400;-66
2022/09/27 04:26:10;;;;;;;0.10;0.10;;;;;;;;;;5072535;28;20479;-66
2022/09/27 04:28:37;;;;;;;0.30;0.10;;;;;;;;;;5072811;28;20487;-67
2022/09/27 04:31:03;;;;;;;0.10;0.10;;;;;;;;;;5073033;28;20028;-67
2022/09/27 04:33:30;;;;;;;0.40;0.17;;;;;;;;;;5073005;28;20033;-67
2022/09/27 04:38:42;;;;;;;0.43;0.10;;;;;;;;;;5067471;28;20047;-67
2022/09/27 04:41:09;;;;;;;0.20;0.20;;;;;;;;;;5067120;28;20251;-67
2022/09/27 04:43:36;;;;;;;0.77;0.20;;;;;;;;;;5066939;28;20576;-66
2022/09/27 04:46:02;;;;;;;0.10;0.07;;;;;;;;;;5067369;28;20032;-66
2022/09/27 04:48:29;;;;;;;0.30;0.20;;;;;;;;;;5072211;28;20372;-66
2022/09/27 04:50:57;;;;;;;0.27;0.23;;;;;;;;;;5072857;28;20032;-67
2022/09/27 04:53:24;;;;;;;0.10;0.10;;;;;;;;;;5072332;28;20021;-67
2022/09/27 04:55:52;;;;;;;0.07;0.07;;;;;;;;;;5072616;28;20395;-66
2022/09/27 04:58:19;;;;;;;0.93;0.50;;;;;;;;;;5071745;28;20031;-66
2022/09/27 05:00:46;;;;;;;0.20;0.20;;;;;;;;;;5066671;28;20387;-66
2022/09/27 05:03:13;;;;;;;0.17;0.10;;;;;;;;;;5067063;28;20031;-66
2022/09/27 05:05:40;;;;;;;0.27;0.27;;;;;;;;;;5067456;28;20039;-66
2022/09/27 05:08:07;;;;;;;0.27;0.10;;;;;;;;;;5066859;28;20025;-66
2022/09/27 05:10:34;;;;;;;0.00;0.00;;;;;;;;;;5071130;28;20111;-67
2022/09/27 05:13:00;;;;;;;0.10;0.10;;;;;;;;;;5071149;28;20028;-67
2022/09/27 05:15:27;;;;;;;0.03;0.03;;;;;;;;;;5071387;28;20035;-67
2022/09/27 05:17:54;;;;;;;0.03;0.03;;;;;;;;;;5071816;28;20036;-67
2022/09/27 05:20:21;;;;;;;1.20;0.20;;;;;;;;;;5072323;28;20035;-67
2022/09/27 05:22:47;;;;;;;0.27;0.20;;;;;;;;;;5068518;28;20032;-67
2022/09/27 05:25:14;;;;;;;1.67;0.33;;;;;;;;;;5067167;28;20021;-67
2022/09/27 05:27:41;;;;;;;0.43;0.17;;;;;;;;;;5067117;28;20047;-67
2022/09/27 05:30:08;;;;;;;0.50;0.33;;;;;;;;;;5066231;28;20078;-67
2022/09/27 05:32:35;;;;;;;0.40;0.13;;;;;;;;;;5070156;28;20495;-67
2022/09/27 05:35:02;;;;;;;0.57;0.20;;;;;;;;;;5072178;28;20048;-67
2022/09/27 05:37:31;;;;;;;0.50;0.10;;;;;;;;;;5072245;28;20503;-66
2022/09/27 05:39:58;;;;;;;0.23;0.23;;;;;;;;;;5071829;28;20024;-67
2022/09/27 05:42:25;;;;;;;0.07;0.03;;;;;;;;;;5072215;28;20037;-67
2022/09/27 05:44:52;;;;;;;1.43;0.40;;;;;;;;;;5068655;28;20107;-67
2022/09/27 05:47:18;;;;;;;0.00;0.00;;;;;;;;;;5066603;28;20462;-67
2022/09/27 05:49:45;;;;;;;3.30;0.30;;;;;;;;;;5066476;28;20613;-67
2022/09/27 05:52:12;;;;;;;0.10;0.10;;;;;;;;;;5066747;28;20028;-67
2022/09/27 05:54:38;;;;;;;0.47;0.17;;;;;;;;;;5069392;28;20095;-67
2022/09/27 05:57:07;;;;;;;0.60;0.40;;;;;;;;;;5071986;28;20025;-67
2022/09/27 05:59:33;;;;;;;0.17;0.17;;;;;;;;;;5071763;28;20105;-67
2022/09/27 06:02:00;;;;;;;0.10;0.10;;;;;;;;;;5071936;28;20032;-67
2022/09/27 06:04:27;;;;;;;0.67;0.30;;;;;;;;;;5071724;28;20020;-67
2022/09/27 06:06:54;;;;;;;0.10;0.10;;;;;;;;;;5069301;28;20028;-67
2022/09/27 06:09:20;;;;;;;0.57;0.33;;;;;;;;;;5066229;28;20020;-67
2022/09/27 06:11:47;;;;;;;0.30;0.30;;;;;;;;;;5069172;28;20475;-67
2022/09/27 06:14:14;;;;;;;0.23;0.20;;;;;;;;;;5070441;28;20036;-67
2022/09/27 06:16:41;;;;;;;0.30;0.20;;;;;;;;;;5072506;28;20017;-67
2022/09/27 06:19:07;;;;;;;0.40;0.30;;;;;;;;;;5075523;28;20099;-67
2022/09/27 06:21:35;;;;;;;0.13;0.13;;;;;;;;;;5074667;28;20075;-67
2022/09/27 06:24:02;;;;;;;0.33;0.30;;;;;;;;;;5075472;28;20025;-67
2022/09/27 06:26:28;;;;;;;0.50;0.40;;;;;;;;;;5075183;28;20044;-67
2022/09/27 06:28:55;;;;;;;0.27;0.20;;;;;;;;;;5073450;28;20078;-67
2022/09/27 06:31:22;;;;;;;0.40;0.30;;;;;;;;;;5069919;28;20104;-66
2022/09/27 06:33:49;;;;;;;1.20;0.47;;;;;;;;;;5070165;28;20472;-67
2022/09/27 06:36:16;;;;;;;0.40;0.30;;;;;;;;;;5070128;28;20025;-66
2022/09/27 06:38:45;;;;;;;0.30;0.27;;;;;;;;;;5070989;28;20029;-67
2022/09/27 06:41:12;;;;;;;1.07;0.67;;;;;;;;;;5074918;28;20032;-67
2022/09/27 06:43:38;;;;;;;0.30;0.30;;;;;;;;;;5074965;28;20093;-67
2022/09/27 06:46:05;;;;;;;0.23;0.23;;;;;;;;;;5075116;28;20068;-67
2022/09/27 06:48:32;;;;;;;0.73;0.53;;;;;;;;;;5075205;28;20479;-66
2022/09/27 06:50:59;;;;;;;1.33;0.60;;;;;;;;;;5073226;28;20379;-67
2022/09/27 06:53:28;;;;;;;0.40;0.37;;;;;;;;;;5069588;28;20020;-67
2022/09/27 06:55:57;;;;;;;1.17;0.67;;;;;;;;;;5069740;28;20021;-67
2022/09/27 07:01:09;;;;;;;0.57;0.40;;;;;;;;;;5070909;28;20498;-67
2022/09/27 07:03:40;;;;;;;1.13;0.80;;;;;;;;;;5074775;28;20029;-66
2022/09/27 07:06:07;;;;;;;0.47;0.37;;;;;;;;;;5074385;28;20041;-67
2022/09/27 07:08:34;;;;;;;0.90;0.47;;;;;;;;;;5074767;28;20153;-67
2022/09/27 07:11:02;;;;;;;0.40;0.40;;;;;;;;;;5074348;28;20375;-67
2022/09/27 07:13:33;;;;;;;0.60;0.57;;;;;;;;;;5072889;28;20106;-67
2022/09/27 07:16:00;;;;;;;0.67;0.67;;;;;;;;;;5069459;28;20367;-66
2022/09/27 07:18:27;;;;;;;0.30;0.30;;;;;;;;;;5069232;28;20028;-66
2022/09/27 07:20:54;;;;;;;0.37;0.37;;;;;;;;;;5068815;28;20498;-67
2022/09/27 07:23:20;;;;;;;0.70;0.70;;;;;;;;;;5069091;28;20437;-67
2022/09/27 07:25:47;;;;;;;1.20;0.83;;;;;;;;;;5074412;28;20036;-67
2022/09/27 07:28:15;;;;;;;0.30;0.30;;;;;;;;;;5074495;28;20023;-66
2022/09/27 07:30:42;;;;;;;0.60;0.50;;;;;;;;;;5074088;28;20403;-67
2022/09/27 07:33:09;;;;;;;0.47;0.40;;;;;;;;;;5074297;28;20568;-66
2022/09/27 07:35:42;;;;;;;0.13;0.13;;;;;;;;;;5072702;28;20045;-66
2022/09/27 07:38:12;;;;;;;0.47;0.20;;;;;;;;;;5068796;28;20031;-67
2022/09/27 07:40:39;;;;;;;0.40;0.30;;;;;;;;;;5050707;28;20644;-66
2022/09/27 07:43:07;;;;;;;0.57;0.40;;;;;;;;;;5068802;28;20020;-67
2022/09/27 07:45:33;;;;;;;0.83;0.40;;;;;;;;;;5069765;28;20048;-66
2022/09/27 07:48:00;;;;;;;1.90;0.63;;;;;;;;;;5074037;28;20099;-66
2022/09/27 07:50:27;;;;;;;0.67;0.57;;;;;;;;;;5073552;28;20032;-67
2022/09/27 07:52:55;;;;;;;0.20;0.20;;;;;;;;;;5073419;28;20028;-67
2022/09/27 07:55:23;;;;;;;0.60;0.50;;;;;;;;;;5074013;28;20033;-66
2022/09/27 07:57:50;;;;;;;1.37;0.80;;;;;;;;;;5072755;28;20032;-66
2022/09/27 08:00:21;;;;;;;0.40;0.40;;;;;;;;;;5068178;28;20028;-66
2022/09/27 08:02:48;;;;;;;0.50;0.40;;;;;;;;;;5068463;28;20052;-66
2022/09/27 08:05:14;;;;;;;0.63;0.53;;;;;;;;;;5068509;28;20024;-67
2022/09/27 08:07:41;;;;;;;0.67;0.40;;;;;;;;;;5068682;28;20471;-66
2022/09/27 08:10:08;;;;;;;0.73;0.70;;;;;;;;;;5072933;28;20390;-67
2022/09/27 08:12:35;;;;;;;0.63;0.47;;;;;;;;;;5073267;28;20498;-66
2022/09/27 08:15:03;;;;;;;0.40;0.40;;;;;;;;;;5073443;28;20029;-67
2022/09/27 08:17:30;;;;;;;0.23;0.23;;;;;;;;;;5073469;28;20025;-67
2022/09/27 08:19:57;;;;;;;1.13;0.70;;;;;;;;;;5072860;28;20020;-66
2022/09/27 08:22:24;;;;;;;1.70;0.83;;;;;;;;;;5067743;28;20515;-67
2022/09/27 08:24:50;;;;;;;0.37;0.27;;;;;;;;;;5067518;28;20032;-66
2022/09/27 08:27:17;;;;;;;0.50;0.50;;;;;;;;;;5067837;28;20066;-66
2022/09/27 08:29:44;;;;;;;1.73;0.80;;;;;;;;;;5068013;28;20021;-66
2022/09/27 08:32:11;;;;;;;0.30;0.30;;;;;;;;;;5072680;28;20024;-67
2022/09/27 08:34:38;;;;;;;0.97;0.70;;;;;;;;;;5072908;28;20031;-66
2022/09/27 08:37:05;;;;;;;1.07;0.80;;;;;;;;;;5073042;28;20048;-66
2022/09/27 08:39:32;;;;;;;1.17;0.67;;;;;;;;;;5072732;28;20380;-67
2022/09/27 08:42:05;;;;;;;0.83;0.57;;;;;;;;;;5072565;28;20032;-67
2022/09/27 08:44:41;;;;;;;0.33;0.33;;;;;;;;;;5067361;28;20753;-67
2022/09/27 08:47:11;;;;;;;1.67;0.80;;;;;;;;;;5067577;28;20111;-67
2022/09/27 08:49:54;;;;;;;0.40;0.20;;;;;;;;;;5067261;28;20032;-66
2022/09/27 08:52:27;;;;;;;0.83;0.60;;;;;;;;;;5067740;28;20025;-66
2022/09/27 08:54:56;;;;;;;2.20;0.90;;;;;;;;;;5072475;28;20360;-66
2022/09/27 08:57:24;;;;;;;0.57;0.50;;;;;;;;;;5072678;28;20028;-66
2022/09/27 09:00:08;;;;;;;0.93;0.50;;;;;;;;;;5072461;28;20029;-66
2022/09/27 09:02:35;;;;;;;3.63;1.33;;;;;;;;;;5072236;28;20024;-67
2022/09/27 09:05:06;;;;;;;0.33;0.30;;;;;;;;;;5070953;28;20077;-67
2022/09/27 09:07:42;;;;;;;0.57;0.50;;;;;;;;;;5067203;28;20031;-66
2022/09/27 09:13:28;;;;;;;0.43;0.33;;;;;;;;;;5066923;28;20078;-66
2022/09/27 09:16:09;;;;;;;0.45;0.45;;;;;;;;;;5070238;28;20028;-67
2022/09/27 09:18:50;;;;;;;0.30;0.20;;;;;;;;;;5072462;28;20033;-66
2022/09/27 09:21:17;;;;;;;1.20;0.73;;;;;;;;;;5072519;28;20021;-66
2022/09/27 09:24:16;;;;;;;0.87;0.50;;;;;;;;;;5072166;28;20487;-66
2022/09/27 09:26:47;;;;;;;0.50;0.30;;;;;;;;;;5028233;28;20048;-66
2022/09/27 09:29:32;;;;;;;1.23;0.80;;;;;;;;;;5067150;28;20487;-66
2022/09/27 09:32:17;;;;;;;0.85;0.65;;;;;;;;;;5067092;28;20025;-66
2022/09/27 09:34:51;;;;;;;0.77;0.60;;;;;;;;;;5066601;28;20854;-66
2022/09/27 09:37:23;;;;;;;0.17;0.10;;;;;;;;;;5068227;28;20375;-66
2022/09/27 09:39:53;;;;;;;0.37;0.37;;;;;;;;;;5072305;28;20035;-66
2022/09/27 09:42:31;;;;;;;0.20;0.20;;;;;;;;;;5072092;28;20025;-66
2022/09/27 09:45:05;;;;;;;0.50;0.50;;;;;;;;;;5071723;28;20043;-67
2022/09/27 09:47:34;;;;;;;0.40;0.40;;;;;;;;;;5075920;28;20082;-67
2022/09/27 09:50:04;;;;;;;0.60;0.50;;;;;;;;;;5073754;28;20043;-67
2022/09/27 09:52:42;;;;;;;0.50;0.50;;;;;;;;;;5070867;28;20081;-67
2022/09/27 09:55:14;;;;;;;0.70;0.40;;;;;;;;;;5070677;28;20029;-67
2022/09/27 09:58:01;;;;;;;0.30;0.30;;;;;;;;;;5070828;28;20063;-67
2022/09/27 10:00:28;;;;;;;2.07;0.80;;;;;;;;;;5073560;28;20047;-67
2022/09/27 10:02:57;;;;;;;0.57;0.50;;;;;;;;;;5075566;28;20035;-67
2022/09/27 10:05:25;;;;;;;0.83;0.63;;;;;;;;;;5055960;28;20078;-67
2022/09/27 10:07:53;;;;;;;0.77;0.60;;;;;;;;;;5055985;28;20104;-67
2022/09/27 10:10:20;;;;;;;0.20;0.20;;;;;;;;;;5055746;28;20029;-66
2022/09/27 10:12:47;;;;;;;1.10;0.77;;;;;;;;;;5071253;28;20059;-66
2022/09/27 10:15:16;;;;;;;2.17;0.60;;;;;;;;;;5070615;28;20013;-66
2022/09/27 10:17:45;;;;;;;0.43;0.30;;;;;;;;;;5070346;28;20103;-66
2022/09/27 10:20:37;;;;;;;1.10;0.53;;;;;;;;;;5070308;28;20072;-67
2022/09/27 10:23:21;;;;;;;0.60;0.50;;;;;;;;;;5069645;28;20040;-66
2022/09/27 10:25:56;;;;;;;1.33;0.40;;;;;;;;;;5074699;28;20383;-66
2022/09/27 10:28:31;;;;;;;1.50;0.50;;;;;;;;;;5075607;28;20028;-66
2022/09/27 10:30:58;;;;;;;;;;;;;;;;;;5075735;28;20048;-66
2022/09/27 10:33:24;;;;;;;1.87;0.90;;;;;;;;;;5075370;28;19905;-66
2022/09/27 10:35:52;;;;;;;2.87;1.30;;;;;;;;;;5070256;28;20020;-66
2022/09/27 10:38:21;;;;;;;1.37;0.90;;;;;;;;;;5069775;28;20081;-66
2022/09/27 10:40:49;;;;;;;0.50;0.50;;;;;;;;;;5070158;28;20020;-66
2022/09/27 10:43:34;;;;;;;0.43;0.40;;;;;;;;;;5069678;28;20035;-66
2022/09/27 10:46:16;;;;;;;0.65;0.52;;;;;;;;;;5074650;28;20047;-66
2022/09/27 10:48:43;;;;;;;0.70;0.40;;;;;;;;;;5075389;28;20020;-66
2022/09/27 10:51:19;;;;;;;0.83;0.60;;;;;;;;;;5075087;28;20025;-66
2022/09/27 10:53:47;;;;;;;0.27;0.27;;;;;;;;;;5074962;28;20035;-66
2022/09/27 10:56:24;;;;;;;0.80;0.70;;;;;;;;;;5074113;28;20024;-67
2022/09/27 10:58:51;;;;;;;0.83;0.73;;;;;;;;;;5068463;28;20535;-67
2022/09/27 11:01:18;;;;;;;0.30;0.30;;;;;;;;;;5069248;28;20060;-66
2022/09/27 11:03:53;;;;;;;7.03;0.43;;;;;;;;;;5051534;28;20447;-66
2022/09/27 11:06:26;;;;;;;0.93;0.77;;;;;;;;;;5070016;28;20112;-65
2022/09/27 11:08:54;;;;;;;1.40;0.70;;;;;;;;;;5074828;28;20016;-66
2022/09/27 11:11:21;;;;;;;0.67;0.60;;;;;;;;;;5074695;28;20032;-66
2022/09/27 11:13:58;;;;;;;1.37;0.50;;;;;;;;;;5073957;28;20052;-66
2022/09/27 11:16:49;;;;;;;0.90;0.70;;;;;;;;;;5074801;28;20029;-65
2022/09/27 11:19:24;;;;;;;0.87;0.67;;;;;;;;;;5072511;28;20055;-66
2022/09/27 11:22:00;;;;;;;0.50;0.47;;;;;;;;;;5069229;28;20047;-66
2022/09/27 11:24:46;;;;;;;0.40;0.30;;;;;;;;;;5069337;28;20024;-66
2022/09/27 11:27:13;;;;;;;0.30;0.20;;;;;;;;;;5069371;28;20031;-66
2022/09/27 11:29:46;;;;;;;0.67;0.50;;;;;;;;;;5071456;28;20092;-66
2022/09/27 11:32:13;;;;;;;0.57;0.50;;;;;;;;;;5074307;28;20032;-66
2022/09/27 11:34:47;;;;;;;0.90;0.70;;;;;;;;;;5074279;28;20548;-66
2022/09/27 11:37:16;;;;;;;0.60;0.50;;;;;;;;;;5074389;28;20487;-66
2022/09/27 11:39:52;;;;;;;0.50;0.47;;;;;;;;;;5074115;28;20020;-65
2022/09/27 11:42:22;;;;;;;0.30;0.30;;;;;;;;;;5070686;28;20020;-66
2022/09/27 11:44:55;;;;;;;0.60;0.40;;;;;;;;;;5068488;28;20032;-66
2022/09/27 11:47:36;;;;;;;0.47;0.40;;;;;;;;;;5068784;28;20067;-65
2022/09/27 11:50:14;;;;;;;3.93;0.70;;;;;;;;;;5068694;28;20021;-66
2022/09/27 11:52:59;;;;;;;1.53;0.90;;;;;;;;;;5072396;28;20103;-66
2022/09/27 11:55:32;;;;;;;2.42;0.93;;;;;;;;;;5074038;28;20047;-65
2022/09/27 11:58:04;;;;;;;0.67;0.67;;;;;;;;;;5073927;28;20034;-65
2022/09/27 12:00:36;;;;;;;1.00;0.70;;;;;;;;;;5073833;28;20024;-66
2022/09/27 12:03:09;;;;;;;0.77;0.77;;;;;;;;;;5073375;28;20048;-65
2022/09/27 12:05:51;;;;;;;0.90;0.80;;;;;;;;;;5068414;28;20021;-65
2022/09/27 12:08:18;;;;;;;0.83;0.50;;;;;;;;;;5067657;28;20029;-66
2022/09/27 12:10:48;;;;;;;0.80;0.70;;;;;;;;;;5068312;28;20024;-66
2022/09/27 12:13:16;;;;;;;1.70;1.03;;;;;;;;;;5068571;28;20048;-65
2022/09/27 12:15:45;;;;;;;0.43;0.30;;;;;;;;;;5073248;28;20029;-66
2022/09/27 12:18:12;;;;;;;1.23;0.80;;;;;;;;;;5073244;28;20059;-65
2022/09/27 12:20:40;;;;;;;0.87;0.60;;;;;;;;;;5073236;28;20036;-66
2022/09/27 12:23:07;;;;;;;0.60;0.53;;;;;;;;;;5073003;28;20016;-66
2022/09/27 12:25:39;;;;;;;1.40;0.70;;;;;;;;;;5072513;28;20020;-66
2022/09/27 12:28:24;;;;;;;0.37;0.37;;;;;;;;;;5067840;28;20040;-65
2022/09/27 12:30:55;;;;;;;0.20;0.20;;;;;;;;;;5067795;28;20028;-65
2022/09/27 12:33:28;;;;;;;1.03;0.53;;;;;;;;;;5067660;28;20426;-66
2022/09/27 12:35:57;;;;;;;0.80;0.60;;;;;;;;;;5069027;28;20039;-65
2022/09/27 12:38:28;;;;;;;1.40;1.03;;;;;;;;;;5072830;28;20031;-66
2022/09/27 12:40:57;;;;;;;0.70;0.60;;;;;;;;;;5073071;28;20407;-65
2022/09/27 12:43:26;;;;;;;0.40;0.40;;;;;;;;;;5072629;28;20116;-65
2022/09/27 12:46:14;;;;;;;0.33;0.23;;;;;;;;;;5072463;28;20039;-66
2022/09/27 12:48:52;;;;;;;1.00;0.70;;;;;;;;;;5070404;28;20107;-65
2022/09/27 12:51:20;;;;;;;0.57;0.43;;;;;;;;;;5066919;28;20028;-65
2022/09/27 12:53:48;;;;;;;2.10;1.27;;;;;;;;;;5067286;28;20371;-65
2022/09/27 12:56:29;;;;;;;1.03;0.93;;;;;;;;;;5067303;28;20100;-66
2022/09/27 12:59:01;;;;;;;1.83;0.70;;;;;;;;;;5070138;28;20035;-65
2022/09/27 13:01:46;;;;;;;0.83;0.70;;;;;;;;;;5072459;28;20028;-65
2022/09/27 13:04:19;;;;;;;1.05;0.57;;;;;;;;;;5071784;28;20107;-64
2022/09/27 13:06:54;;;;;;;0.40;0.30;;;;;;;;;;5072502;28;20375;-65
2022/09/27 13:09:26;;;;;;;2.10;1.00;;;;;;;;;;5072469;28;20020;-65
2022/09/27 13:12:02;;;;;;;0.30;0.30;;;;;;;;;;5068001;28;20116;-65
2022/09/27 13:14:31;;;;;;;0.40;0.40;;;;;;;;;;5067088;28;20039;-65
2022/09/27 13:16:58;;;;;;;0.50;0.50;;;;;;;;;;5066914;28;20143;-65
2022/09/27 13:19:34;;;;;;;0.53;0.50;;;;;;;;;;5066866;28;20028;-65
2022/09/27 13:22:01;;;;;;;0.20;0.20;;;;;;;;;;5070674;28;20414;-65
2022/09/27 13:24:31;;;;;;;7.90;1.07;;;;;;;;;;5072380;28;20429;-65
2022/09/27 13:27:00;;;;;;;0.30;0.30;;;;;;;;;;5071924;28;20056;-65
2022/09/27 13:29:28;;;;;;;0.80;0.50;;;;;;;;;;5072100;28;20034;-65
2022/09/27 13:31:58;;;;;;;0.40;0.30;;;;;;;;;;5072267;28;20036;-64
2022/09/27 13:34:37;;;;;;;0.40;0.30;;;;;;;;;;5066692;28;20103;-65
2022/09/27 13:37:22;;;;;;;0.77;0.50;;;;;;;;;;5066842;28;20055;-65
2022/09/27 13:39:49;;;;;;;0.50;0.40;;;;;;;;;;5066817;28;20089;-65
2022/09/27 13:42:44;;;;;;;0.80;0.60;;;;;;;;;;5066818;28;20051;-65
2022/09/27 13:45:37;;;;;;;0.38;0.38;;;;;;;;;;5069293;28;20069;-65
2022/09/27 13:48:10;;;;;;;0.20;0.20;;;;;;;;;;5041935;28;20045;-65
2022/09/27 13:50:45;;;;;;;1.63;0.67;;;;;;;;;;5071968;28;20498;-65
2022/09/27 13:53:30;;;;;;;0.50;0.40;;;;;;;;;;5071545;28;20060;-66
2022/09/27 13:55:57;;;;;;;0.40;0.25;;;;;;;;;;5068964;28;20067;-65
2022/09/27 13:58:29;;;;;;;0.20;0.20;;;;;;;;;;5066628;28;20569;-65
2022/09/27 14:00:59;;;;;;;0.00;0.00;;;;;;;;;;5066370;28;20029;-65
2022/09/27 14:03:28;;;;;;;0.10;0.10;;;;;;;;;;5066587;28;20375;-66
2022/09/27 14:05:57;;;;;;;0.63;0.43;;;;;;;;;;5069168;28;20078;-65
2022/09/27 14:08:23;;;;;;;0.10;0.10;;;;;;;;;;5071759;28;20475;-65
2022/09/27 14:10:51;;;;;;;0.87;0.30;;;;;;;;;;5071712;28;20357;-65
2022/09/27 14:13:19;;;;;;;0.17;0.10;;;;;;;;;;5071755;28;20064;-66
2022/09/27 14:15:46;;;;;;;0.50;0.40;;;;;;;;;;5071995;28;20035;-65
2022/09/27 14:18:16;;;;;;;0.67;0.47;;;;;;;;;;5068637;28;20016;-66
2022/09/27 14:20:44;;;;;;;0.70;0.30;;;;;;;;;;5066474;28;20059;-66
2022/09/27 14:23:16;;;;;;;0.30;0.20;;;;;;;;;;5066145;28;20032;-66
2022/09/27 14:25:47;;;;;;;0.30;0.30;;;;;;;;;;5046235;28;20052;-66
2022/09/27 14:28:21;;;;;;;2.33;0.47;;;;;;;;;;5049011;28;20380;-66
2022/09/27 14:30:47;;;;;;;0.47;0.32;;;;;;;;;;5051413;28;20028;-66
2022/09/27 14:33:31;;;;;;;0.40;0.30;;;;;;;;;;5054973;28;20021;-65
2022/09/27 14:38:47;;;;;;;0.77;0.60;;;;;;;;;;5075267;28;20044;-65
2022/09/27 14:41:14;;;;;;;0.20;0.20;;;;;;;;;;5070630;28;20076;-68
2022/09/27 14:43:45;;;;;;;0.10;0.10;;;;;;;;;;5069781;28;20024;-66
2022/09/27 14:46:41;;;;;;;2.27;0.77;;;;;;;;;;5069774;28;20126;-65
2022/09/27 14:49:20;;;;;;;0.10;0.10;;;;;;;;;;5051956;28;20072;-66
2022/09/27 14:51:57;;;;;;;0.30;0.30;;;;;;;;;;5074886;28;20025;-66
2022/09/27 14:54:30;;;;;;;0.90;0.40;;;;;;;;;;5074980;28;20013;-67
2022/09/27 14:56:58;;;;;;;0.57;0.30;;;;;;;;;;5074746;28;20028;-66
2022/09/27 14:59:29;;;;;;;0.50;0.30;;;;;;;;;;5074550;28;20032;-66
2022/09/27 15:01:59;;;;;;;0.10;0.10;;;;;;;;;;5071357;28;20089;-66
2022/09/27 15:04:27;;;;;;;0.10;0.10;;;;;;;;;;5069607;28;20056;-65
2022/09/27 15:06:55;;;;;;;0.10;0.10;;;;;;;;;;5069371;28;20024;-65
2022/09/27 15:09:22;;;;;;;0.93;0.30;;;;;;;;;;5069396;28;20086;-66
2022/09/27 15:11:51;;;;;;;0.00;0.00;;;;;;;;;;5069071;28;20069;-67
2022/09/27 15:14:19;;;;;;;0.20;0.20;;;;;;;;;;5054777;28;20117;-66